sensor_id;sensor_type;location;lat;lon;timestamp;P1;durP1;ratioP1;P2;durP2;ratioP2
20324;SDS011;10320;49.482;11.256;2022-11-14T00:02:15;32.90;;;26.50;;
20324;SDS011;10320;49.482;11.256;2022-11-14T00:04:44;31.27;;;24.60;;
20324;SDS011;10320;49.482;11.256;2022-11-14T00:07:10;33.13;;;26.23;;
20324;SDS011;10320;49.482;11.256;2022-11-14T00:09:36;33.53;;;25.37;;
20324;SDS011;10320;49.482;11.256;2022-11-14T00:12:04;32.67;;;25.10;;
20324;SDS011;10320;49.482;11.256;2022-11-14T00:14:30;34.43;;;26.57;;
20324;SDS011;10320;49.482;11.256;2022-11-14T00:16:56;32.27;;;25.03;;
20324;SDS011;10320;49.482;11.256;2022-11-14T00:19:22;34.73;;;26.37;;
20324;SDS011;10320;49.482;11.256;2022-11-14T00:21:48;34.27;;;25.27;;
20324;SDS011;10320;49.482;11.256;2022-11-14T00:24:16;35.73;;;26.80;;
20324;SDS011;10320;49.482;11.256;2022-11-14T00:26:42;37.80;;;27.90;;
20324;SDS011;10320;49.482;11.256;2022-11-14T00:29:12;36.40;;;26.73;;
20324;SDS011;10320;49.482;11.256;2022-11-14T00:31:38;35.00;;;26.37;;
20324;SDS011;10320;49.482;11.256;2022-11-14T00:34:04;32.30;;;25.07;;
20324;SDS011;10320;49.482;11.256;2022-11-14T00:36:31;36.53;;;26.20;;
20324;SDS011;10320;49.482;11.256;2022-11-14T00:38:56;35.23;;;26.73;;
20324;SDS011;10320;49.482;11.256;2022-11-14T00:41:22;36.67;;;26.93;;
20324;SDS011;10320;49.482;11.256;2022-11-14T00:43:49;37.73;;;25.97;;
20324;SDS011;10320;49.482;11.256;2022-11-14T00:46:15;38.27;;;27.37;;
20324;SDS011;10320;49.482;11.256;2022-11-14T00:48:41;37.33;;;27.37;;
20324;SDS011;10320;49.482;11.256;2022-11-14T00:51:07;36.57;;;27.33;;
20324;SDS011;10320;49.482;11.256;2022-11-14T00:53:33;38.23;;;27.97;;
20324;SDS011;10320;49.482;11.256;2022-11-14T00:55:59;37.10;;;26.70;;
20324;SDS011;10320;49.482;11.256;2022-11-14T00:58:25;39.97;;;29.47;;
20324;SDS011;10320;49.482;11.256;2022-11-14T01:00:52;39.87;;;27.63;;
20324;SDS011;10320;49.482;11.256;2022-11-14T01:03:18;38.57;;;26.67;;
20324;SDS011;10320;49.482;11.256;2022-11-14T01:05:45;42.03;;;30.20;;
20324;SDS011;10320;49.482;11.256;2022-11-14T01:08:12;38.73;;;29.43;;
20324;SDS011;10320;49.482;11.256;2022-11-14T01:10:44;43.77;;;30.53;;
20324;SDS011;10320;49.482;11.256;2022-11-14T01:13:10;38.27;;;27.40;;
20324;SDS011;10320;49.482;11.256;2022-11-14T01:15:37;44.23;;;31.33;;
20324;SDS011;10320;49.482;11.256;2022-11-14T01:18:04;39.47;;;28.53;;
20324;SDS011;10320;49.482;11.256;2022-11-14T01:20:30;37.20;;;27.37;;
20324;SDS011;10320;49.482;11.256;2022-11-14T01:22:56;40.67;;;28.47;;
20324;SDS011;10320;49.482;11.256;2022-11-14T01:25:22;44.20;;;29.40;;
20324;SDS011;10320;49.482;11.256;2022-11-14T01:27:48;40.40;;;28.80;;
20324;SDS011;10320;49.482;11.256;2022-11-14T01:30:14;45.50;;;31.20;;
20324;SDS011;10320;49.482;11.256;2022-11-14T01:32:40;40.37;;;29.93;;
20324;SDS011;10320;49.482;11.256;2022-11-14T01:35:06;44.00;;;30.80;;
20324;SDS011;10320;49.482;11.256;2022-11-14T01:37:32;38.63;;;28.80;;
20324;SDS011;10320;49.482;11.256;2022-11-14T01:39:58;41.60;;;29.97;;
20324;SDS011;10320;49.482;11.256;2022-11-14T01:42:25;43.90;;;29.70;;
20324;SDS011;10320;49.482;11.256;2022-11-14T01:44:51;39.07;;;29.07;;
20324;SDS011;10320;49.482;11.256;2022-11-14T01:47:19;41.77;;;28.83;;
20324;SDS011;10320;49.482;11.256;2022-11-14T01:49:46;40.30;;;28.40;;
20324;SDS011;10320;49.482;11.256;2022-11-14T01:52:14;40.17;;;28.67;;
20324;SDS011;10320;49.482;11.256;2022-11-14T01:54:42;38.03;;;28.27;;
20324;SDS011;10320;49.482;11.256;2022-11-14T01:57:09;39.20;;;28.13;;
20324;SDS011;10320;49.482;11.256;2022-11-14T01:59:37;37.87;;;28.63;;
20324;SDS011;10320;49.482;11.256;2022-11-14T02:02:11;39.23;;;28.17;;
20324;SDS011;10320;49.482;11.256;2022-11-14T02:04:38;36.97;;;26.63;;
20324;SDS011;10320;49.482;11.256;2022-11-14T02:07:06;36.93;;;26.53;;
20324;SDS011;10320;49.482;11.256;2022-11-14T02:09:36;36.27;;;27.00;;
20324;SDS011;10320;49.482;11.256;2022-11-14T02:12:04;39.43;;;27.00;;
20324;SDS011;10320;49.482;11.256;2022-11-14T02:14:30;48.20;;;31.47;;
20324;SDS011;10320;49.482;11.256;2022-11-14T02:16:57;44.13;;;31.57;;
20324;SDS011;10320;49.482;11.256;2022-11-14T02:19:23;43.97;;;31.20;;
20324;SDS011;10320;49.482;11.256;2022-11-14T02:21:49;39.10;;;29.37;;
20324;SDS011;10320;49.482;11.256;2022-11-14T02:24:16;45.47;;;31.50;;
20324;SDS011;10320;49.482;11.256;2022-11-14T02:26:42;43.97;;;30.23;;
20324;SDS011;10320;49.482;11.256;2022-11-14T02:29:09;43.77;;;30.67;;
20324;SDS011;10320;49.482;11.256;2022-11-14T02:31:35;40.93;;;27.90;;
20324;SDS011;10320;49.482;11.256;2022-11-14T02:34:01;40.03;;;28.80;;
20324;SDS011;10320;49.482;11.256;2022-11-14T02:36:27;35.60;;;26.63;;
20324;SDS011;10320;49.482;11.256;2022-11-14T02:38:53;35.47;;;25.60;;
20324;SDS011;10320;49.482;11.256;2022-11-14T02:41:19;36.70;;;25.73;;
20324;SDS011;10320;49.482;11.256;2022-11-14T02:43:45;33.47;;;25.07;;
20324;SDS011;10320;49.482;11.256;2022-11-14T02:46:11;31.07;;;23.60;;
20324;SDS011;10320;49.482;11.256;2022-11-14T02:48:37;32.03;;;22.17;;
20324;SDS011;10320;49.482;11.256;2022-11-14T02:51:06;30.67;;;21.23;;
20324;SDS011;10320;49.482;11.256;2022-11-14T02:53:32;31.20;;;22.13;;
20324;SDS011;10320;49.482;11.256;2022-11-14T02:55:58;29.47;;;22.17;;
20324;SDS011;10320;49.482;11.256;2022-11-14T02:58:24;35.77;;;22.73;;
20324;SDS011;10320;49.482;11.256;2022-11-14T03:00:50;32.73;;;21.93;;
20324;SDS011;10320;49.482;11.256;2022-11-14T03:03:16;37.10;;;24.40;;
20324;SDS011;10320;49.482;11.256;2022-11-14T03:05:42;35.10;;;23.93;;
20324;SDS011;10320;49.482;11.256;2022-11-14T03:08:07;39.37;;;25.60;;
20324;SDS011;10320;49.482;11.256;2022-11-14T03:10:33;39.40;;;24.47;;
20324;SDS011;10320;49.482;11.256;2022-11-14T03:12:59;36.67;;;24.47;;
20324;SDS011;10320;49.482;11.256;2022-11-14T03:15:25;44.73;;;26.03;;
20324;SDS011;10320;49.482;11.256;2022-11-14T03:17:51;46.50;;;27.57;;
20324;SDS011;10320;49.482;11.256;2022-11-14T03:20:17;43.23;;;27.73;;
20324;SDS011;10320;49.482;11.256;2022-11-14T03:22:43;43.90;;;28.17;;
20324;SDS011;10320;49.482;11.256;2022-11-14T03:25:09;50.40;;;29.20;;
20324;SDS011;10320;49.482;11.256;2022-11-14T03:27:35;50.40;;;29.23;;
20324;SDS011;10320;49.482;11.256;2022-11-14T03:30:01;49.43;;;29.10;;
20324;SDS011;10320;49.482;11.256;2022-11-14T03:32:27;45.73;;;27.87;;
20324;SDS011;10320;49.482;11.256;2022-11-14T03:34:53;45.60;;;29.33;;
20324;SDS011;10320;49.482;11.256;2022-11-14T03:37:19;44.90;;;27.37;;
20324;SDS011;10320;49.482;11.256;2022-11-14T03:39:45;52.40;;;29.67;;
20324;SDS011;10320;49.482;11.256;2022-11-14T03:42:11;43.93;;;29.13;;
20324;SDS011;10320;49.482;11.256;2022-11-14T03:44:37;43.80;;;28.70;;
20324;SDS011;10320;49.482;11.256;2022-11-14T03:47:03;45.97;;;28.27;;
20324;SDS011;10320;49.482;11.256;2022-11-14T03:49:29;49.67;;;29.13;;
20324;SDS011;10320;49.482;11.256;2022-11-14T03:51:55;47.73;;;29.47;;
20324;SDS011;10320;49.482;11.256;2022-11-14T03:54:21;48.60;;;28.63;;
20324;SDS011;10320;49.482;11.256;2022-11-14T03:56:47;47.13;;;29.40;;
20324;SDS011;10320;49.482;11.256;2022-11-14T03:59:13;51.83;;;30.13;;
20324;SDS011;10320;49.482;11.256;2022-11-14T04:01:39;55.00;;;32.00;;
20324;SDS011;10320;49.482;11.256;2022-11-14T04:04:05;55.30;;;31.60;;
20324;SDS011;10320;49.482;11.256;2022-11-14T04:06:31;56.93;;;32.20;;
20324;SDS011;10320;49.482;11.256;2022-11-14T04:08:57;55.27;;;31.90;;
20324;SDS011;10320;49.482;11.256;2022-11-14T04:11:24;54.77;;;31.33;;
20324;SDS011;10320;49.482;11.256;2022-11-14T04:13:50;55.20;;;32.57;;
20324;SDS011;10320;49.482;11.256;2022-11-14T04:16:16;59.33;;;33.30;;
20324;SDS011;10320;49.482;11.256;2022-11-14T04:18:42;58.53;;;33.13;;
20324;SDS011;10320;49.482;11.256;2022-11-14T04:21:08;59.83;;;34.70;;
20324;SDS011;10320;49.482;11.256;2022-11-14T04:23:34;63.90;;;34.77;;
20324;SDS011;10320;49.482;11.256;2022-11-14T04:26:00;60.37;;;35.97;;
20324;SDS011;10320;49.482;11.256;2022-11-14T04:28:25;62.50;;;37.43;;
20324;SDS011;10320;49.482;11.256;2022-11-14T04:30:51;63.00;;;37.67;;
20324;SDS011;10320;49.482;11.256;2022-11-14T04:33:17;65.70;;;38.43;;
20324;SDS011;10320;49.482;11.256;2022-11-14T04:35:43;63.43;;;36.27;;
20324;SDS011;10320;49.482;11.256;2022-11-14T04:38:09;57.60;;;35.97;;
20324;SDS011;10320;49.482;11.256;2022-11-14T04:40:35;55.40;;;34.60;;
20324;SDS011;10320;49.482;11.256;2022-11-14T04:43:01;58.10;;;33.37;;
20324;SDS011;10320;49.482;11.256;2022-11-14T04:45:27;56.67;;;33.27;;
20324;SDS011;10320;49.482;11.256;2022-11-14T04:47:53;52.60;;;31.93;;
20324;SDS011;10320;49.482;11.256;2022-11-14T04:50:19;56.03;;;33.77;;
20324;SDS011;10320;49.482;11.256;2022-11-14T04:52:45;56.73;;;33.17;;
20324;SDS011;10320;49.482;11.256;2022-11-14T04:55:11;54.93;;;32.80;;
20324;SDS011;10320;49.482;11.256;2022-11-14T04:57:37;55.93;;;31.53;;
20324;SDS011;10320;49.482;11.256;2022-11-14T05:00:04;66.57;;;34.97;;
20324;SDS011;10320;49.482;11.256;2022-11-14T05:02:30;56.03;;;31.63;;
20324;SDS011;10320;49.482;11.256;2022-11-14T05:04:56;61.83;;;33.23;;
20324;SDS011;10320;49.482;11.256;2022-11-14T05:07:22;57.57;;;32.00;;
20324;SDS011;10320;49.482;11.256;2022-11-14T05:09:48;58.17;;;33.27;;
20324;SDS011;10320;49.482;11.256;2022-11-14T05:12:14;59.17;;;33.10;;
20324;SDS011;10320;49.482;11.256;2022-11-14T05:14:40;57.83;;;32.30;;
20324;SDS011;10320;49.482;11.256;2022-11-14T05:17:06;56.43;;;32.07;;
20324;SDS011;10320;49.482;11.256;2022-11-14T05:19:32;58.63;;;33.23;;
20324;SDS011;10320;49.482;11.256;2022-11-14T05:21:58;61.33;;;32.87;;
20324;SDS011;10320;49.482;11.256;2022-11-14T05:24:24;59.83;;;34.47;;
20324;SDS011;10320;49.482;11.256;2022-11-14T05:26:52;61.63;;;34.17;;
20324;SDS011;10320;49.482;11.256;2022-11-14T05:29:18;63.23;;;38.07;;
20324;SDS011;10320;49.482;11.256;2022-11-14T05:31:44;66.27;;;37.20;;
20324;SDS011;10320;49.482;11.256;2022-11-14T05:34:10;59.03;;;34.43;;
20324;SDS011;10320;49.482;11.256;2022-11-14T05:36:36;55.57;;;32.90;;
20324;SDS011;10320;49.482;11.256;2022-11-14T05:39:02;58.60;;;32.13;;
20324;SDS011;10320;49.482;11.256;2022-11-14T05:41:28;61.27;;;32.20;;
20324;SDS011;10320;49.482;11.256;2022-11-14T05:43:54;55.33;;;31.23;;
20324;SDS011;10320;49.482;11.256;2022-11-14T05:46:20;63.73;;;33.27;;
20324;SDS011;10320;49.482;11.256;2022-11-14T05:48:46;55.63;;;31.60;;
20324;SDS011;10320;49.482;11.256;2022-11-14T05:51:12;56.73;;;31.07;;
20324;SDS011;10320;49.482;11.256;2022-11-14T05:53:38;56.67;;;31.27;;
20324;SDS011;10320;49.482;11.256;2022-11-14T05:56:06;55.07;;;32.43;;
20324;SDS011;10320;49.482;11.256;2022-11-14T05:58:32;52.70;;;30.87;;
20324;SDS011;10320;49.482;11.256;2022-11-14T06:01:09;56.37;;;32.03;;
20324;SDS011;10320;49.482;11.256;2022-11-14T06:03:37;47.20;;;28.50;;
20324;SDS011;10320;49.482;11.256;2022-11-14T06:06:04;54.10;;;31.57;;
20324;SDS011;10320;49.482;11.256;2022-11-14T06:08:30;55.80;;;31.50;;
20324;SDS011;10320;49.482;11.256;2022-11-14T06:11:00;56.93;;;31.60;;
20324;SDS011;10320;49.482;11.256;2022-11-14T06:13:27;57.60;;;30.63;;
20324;SDS011;10320;49.482;11.256;2022-11-14T06:15:56;53.33;;;30.03;;
20324;SDS011;10320;49.482;11.256;2022-11-14T06:18:22;53.10;;;30.10;;
20324;SDS011;10320;49.482;11.256;2022-11-14T06:20:48;50.40;;;30.07;;
20324;SDS011;10320;49.482;11.256;2022-11-14T06:23:14;57.70;;;30.10;;
20324;SDS011;10320;49.482;11.256;2022-11-14T06:25:40;56.20;;;31.97;;
20324;SDS011;10320;49.482;11.256;2022-11-14T06:28:06;59.17;;;32.57;;
20324;SDS011;10320;49.482;11.256;2022-11-14T06:30:32;60.00;;;32.83;;
20324;SDS011;10320;49.482;11.256;2022-11-14T06:32:58;61.60;;;33.47;;
20324;SDS011;10320;49.482;11.256;2022-11-14T06:35:25;58.37;;;33.07;;
20324;SDS011;10320;49.482;11.256;2022-11-14T06:37:51;58.13;;;31.90;;
20324;SDS011;10320;49.482;11.256;2022-11-14T06:40:17;58.30;;;32.20;;
20324;SDS011;10320;49.482;11.256;2022-11-14T06:42:43;58.40;;;31.37;;
20324;SDS011;10320;49.482;11.256;2022-11-14T06:45:09;54.20;;;33.13;;
20324;SDS011;10320;49.482;11.256;2022-11-14T06:47:35;56.93;;;33.27;;
20324;SDS011;10320;49.482;11.256;2022-11-14T06:50:01;51.17;;;31.70;;
20324;SDS011;10320;49.482;11.256;2022-11-14T06:52:27;52.67;;;32.57;;
20324;SDS011;10320;49.482;11.256;2022-11-14T06:54:53;53.03;;;32.80;;
20324;SDS011;10320;49.482;11.256;2022-11-14T06:57:19;53.87;;;32.50;;
20324;SDS011;10320;49.482;11.256;2022-11-14T06:59:45;53.70;;;32.57;;
20324;SDS011;10320;49.482;11.256;2022-11-14T07:02:12;56.43;;;31.10;;
20324;SDS011;10320;49.482;11.256;2022-11-14T07:04:38;57.63;;;30.73;;
20324;SDS011;10320;49.482;11.256;2022-11-14T07:07:04;52.47;;;30.03;;
20324;SDS011;10320;49.482;11.256;2022-11-14T07:09:30;58.07;;;31.20;;
20324;SDS011;10320;49.482;11.256;2022-11-14T07:11:56;61.20;;;35.00;;
20324;SDS011;10320;49.482;11.256;2022-11-14T07:14:22;53.87;;;31.37;;
20324;SDS011;10320;49.482;11.256;2022-11-14T07:16:48;50.00;;;29.10;;
20324;SDS011;10320;49.482;11.256;2022-11-14T07:19:14;57.23;;;35.33;;
20324;SDS011;10320;49.482;11.256;2022-11-14T07:21:40;57.90;;;33.63;;
20324;SDS011;10320;49.482;11.256;2022-11-14T07:24:06;52.13;;;30.57;;
20324;SDS011;10320;49.482;11.256;2022-11-14T07:26:32;46.67;;;27.70;;
20324;SDS011;10320;49.482;11.256;2022-11-14T07:28:58;52.20;;;29.70;;
20324;SDS011;10320;49.482;11.256;2022-11-14T07:31:24;45.57;;;27.67;;
20324;SDS011;10320;49.482;11.256;2022-11-14T07:33:50;45.13;;;26.87;;
20324;SDS011;10320;49.482;11.256;2022-11-14T07:36:16;44.47;;;27.00;;
20324;SDS011;10320;49.482;11.256;2022-11-14T07:38:42;44.90;;;27.43;;
20324;SDS011;10320;49.482;11.256;2022-11-14T07:41:13;47.87;;;28.73;;
20324;SDS011;10320;49.482;11.256;2022-11-14T07:43:39;45.90;;;29.17;;
20324;SDS011;10320;49.482;11.256;2022-11-14T07:46:07;47.73;;;29.93;;
20324;SDS011;10320;49.482;11.256;2022-11-14T07:48:33;52.47;;;33.50;;
20324;SDS011;10320;49.482;11.256;2022-11-14T07:50:59;50.90;;;34.20;;
20324;SDS011;10320;49.482;11.256;2022-11-14T07:53:26;54.17;;;35.90;;
20324;SDS011;10320;49.482;11.256;2022-11-14T07:55:52;49.43;;;34.80;;
20324;SDS011;10320;49.482;11.256;2022-11-14T07:58:19;53.10;;;34.97;;
20324;SDS011;10320;49.482;11.256;2022-11-14T08:00:45;51.37;;;33.07;;
20324;SDS011;10320;49.482;11.256;2022-11-14T08:03:11;41.53;;;29.30;;
20324;SDS011;10320;49.482;11.256;2022-11-14T08:05:37;38.90;;;27.27;;
20324;SDS011;10320;49.482;11.256;2022-11-14T08:08:03;42.97;;;27.00;;
20324;SDS011;10320;49.482;11.256;2022-11-14T08:10:29;42.50;;;30.53;;
20324;SDS011;10320;49.482;11.256;2022-11-14T08:13:04;41.13;;;29.30;;
20324;SDS011;10320;49.482;11.256;2022-11-14T08:15:32;41.63;;;30.10;;
20324;SDS011;10320;49.482;11.256;2022-11-14T08:17:58;41.33;;;31.10;;
20324;SDS011;10320;49.482;11.256;2022-11-14T08:20:25;39.20;;;30.47;;
20324;SDS011;10320;49.482;11.256;2022-11-14T08:23:01;39.13;;;28.57;;
20324;SDS011;10320;49.482;11.256;2022-11-14T08:25:27;29.90;;;22.80;;
20324;SDS011;10320;49.482;11.256;2022-11-14T08:27:53;31.87;;;23.87;;
20324;SDS011;10320;49.482;11.256;2022-11-14T08:30:19;27.67;;;20.40;;
20324;SDS011;10320;49.482;11.256;2022-11-14T08:32:45;31.50;;;24.30;;
20324;SDS011;10320;49.482;11.256;2022-11-14T08:35:11;25.60;;;20.23;;
20324;SDS011;10320;49.482;11.256;2022-11-14T08:37:37;24.00;;;19.30;;
20324;SDS011;10320;49.482;11.256;2022-11-14T08:40:03;24.27;;;19.87;;
20324;SDS011;10320;49.482;11.256;2022-11-14T08:42:30;20.87;;;16.80;;
20324;SDS011;10320;49.482;11.256;2022-11-14T08:44:56;22.50;;;17.80;;
20324;SDS011;10320;49.482;11.256;2022-11-14T08:47:22;19.07;;;15.97;;
20324;SDS011;10320;49.482;11.256;2022-11-14T08:49:48;18.10;;;15.70;;
20324;SDS011;10320;49.482;11.256;2022-11-14T08:52:14;19.77;;;15.13;;
20324;SDS011;10320;49.482;11.256;2022-11-14T08:54:40;16.03;;;14.33;;
20324;SDS011;10320;49.482;11.256;2022-11-14T08:57:06;15.73;;;13.60;;
20324;SDS011;10320;49.482;11.256;2022-11-14T08:59:32;16.17;;;14.10;;
20324;SDS011;10320;49.482;11.256;2022-11-14T09:01:58;14.63;;;11.90;;
20324;SDS011;10320;49.482;11.256;2022-11-14T09:04:24;13.70;;;12.23;;
20324;SDS011;10320;49.482;11.256;2022-11-14T09:06:50;12.57;;;10.97;;
20324;SDS011;10320;49.482;11.256;2022-11-14T09:09:16;12.70;;;11.40;;
20324;SDS011;10320;49.482;11.256;2022-11-14T09:11:42;11.57;;;10.37;;
20324;SDS011;10320;49.482;11.256;2022-11-14T09:14:08;11.30;;;10.20;;
20324;SDS011;10320;49.482;11.256;2022-11-14T09:16:34;11.67;;;10.47;;
20324;SDS011;10320;49.482;11.256;2022-11-14T09:19:00;11.13;;;9.97;;
20324;SDS011;10320;49.482;11.256;2022-11-14T09:21:26;10.70;;;9.60;;
20324;SDS011;10320;49.482;11.256;2022-11-14T09:23:52;11.07;;;9.23;;
20324;SDS011;10320;49.482;11.256;2022-11-14T09:26:18;9.27;;;8.37;;
20324;SDS011;10320;49.482;11.256;2022-11-14T09:28:44;9.93;;;8.93;;
20324;SDS011;10320;49.482;11.256;2022-11-14T09:31:11;9.17;;;8.27;;
20324;SDS011;10320;49.482;11.256;2022-11-14T09:33:38;8.63;;;7.83;;
20324;SDS011;10320;49.482;11.256;2022-11-14T09:36:04;9.30;;;8.40;;
20324;SDS011;10320;49.482;11.256;2022-11-14T09:38:31;8.30;;;7.50;;
20324;SDS011;10320;49.482;11.256;2022-11-14T09:46:21;8.00;;;7.20;;
20324;SDS011;10320;49.482;11.256;2022-11-14T09:48:47;7.67;;;6.90;;
20324;SDS011;10320;49.482;11.256;2022-11-14T09:51:15;7.43;;;6.77;;
20324;SDS011;10320;49.482;11.256;2022-11-14T09:56:14;7.13;;;6.47;;
20324;SDS011;10320;49.482;11.256;2022-11-14T09:58:43;7.10;;;6.40;;
20324;SDS011;10320;49.482;11.256;2022-11-14T10:03:53;7.33;;;6.63;;
20324;SDS011;10320;49.482;11.256;2022-11-14T10:06:28;7.97;;;6.47;;
20324;SDS011;10320;49.482;11.256;2022-11-14T10:21:58;6.70;;;5.80;;
20324;SDS011;10320;49.482;11.256;2022-11-14T10:32:13;6.50;;;5.90;;
20324;SDS011;10320;49.482;11.256;2022-11-14T10:34:43;6.53;;;5.67;;
20324;SDS011;10320;49.482;11.256;2022-11-14T10:39:41;6.47;;;5.83;;
20324;SDS011;10320;49.482;11.256;2022-11-14T10:42:13;6.47;;;5.93;;
20324;SDS011;10320;49.482;11.256;2022-11-14T10:44:42;6.60;;;5.87;;
20324;SDS011;10320;49.482;11.256;2022-11-14T10:47:12;6.33;;;5.73;;
20324;SDS011;10320;49.482;11.256;2022-11-14T10:49:39;6.50;;;5.87;;
20324;SDS011;10320;49.482;11.256;2022-11-14T10:52:08;7.73;;;6.07;;
20324;SDS011;10320;49.482;11.256;2022-11-14T10:54:38;6.10;;;5.60;;
20324;SDS011;10320;49.482;11.256;2022-11-14T10:57:12;6.93;;;5.40;;
20324;SDS011;10320;49.482;11.256;2022-11-14T10:59:39;6.20;;;5.60;;
20324;SDS011;10320;49.482;11.256;2022-11-14T11:02:07;6.00;;;5.50;;
20324;SDS011;10320;49.482;11.256;2022-11-14T11:04:36;6.40;;;5.80;;
20324;SDS011;10320;49.482;11.256;2022-11-14T11:09:36;6.00;;;5.50;;
20324;SDS011;10320;49.482;11.256;2022-11-14T11:12:24;6.73;;;5.70;;
20324;SDS011;10320;49.482;11.256;2022-11-14T11:15:20;6.17;;;5.40;;
20324;SDS011;10320;49.482;11.256;2022-11-14T11:17:53;8.80;;;7.60;;
20324;SDS011;10320;49.482;11.256;2022-11-14T11:20:39;5.33;;;4.87;;
20324;SDS011;10320;49.482;11.256;2022-11-14T11:25:32;6.03;;;5.53;;
20324;SDS011;10320;49.482;11.256;2022-11-14T11:28:20;5.87;;;5.37;;
20324;SDS011;10320;49.482;11.256;2022-11-14T11:33:22;5.53;;;5.03;;
20324;SDS011;10320;49.482;11.256;2022-11-14T11:35:49;5.43;;;4.93;;
20324;SDS011;10320;49.482;11.256;2022-11-14T11:38:15;5.03;;;4.63;;
20324;SDS011;10320;49.482;11.256;2022-11-14T11:40:43;5.37;;;4.90;;
20324;SDS011;10320;49.482;11.256;2022-11-14T11:45:43;5.20;;;4.70;;
20324;SDS011;10320;49.482;11.256;2022-11-14T11:48:15;4.13;;;3.73;;
20324;SDS011;10320;49.482;11.256;2022-11-14T11:50:42;4.40;;;3.70;;
20324;SDS011;10320;49.482;11.256;2022-11-14T11:53:24;4.83;;;4.37;;
20324;SDS011;10320;49.482;11.256;2022-11-14T11:55:54;4.50;;;4.10;;
20324;SDS011;10320;49.482;11.256;2022-11-14T11:58:32;3.97;;;3.67;;
20324;SDS011;10320;49.482;11.256;2022-11-14T12:01:00;3.97;;;3.60;;
20324;SDS011;10320;49.482;11.256;2022-11-14T12:03:26;4.20;;;3.80;;
20324;SDS011;10320;49.482;11.256;2022-11-14T12:11:23;5.53;;;3.63;;
20324;SDS011;10320;49.482;11.256;2022-11-14T12:16:21;3.73;;;3.43;;
20324;SDS011;10320;49.482;11.256;2022-11-14T12:21:26;3.47;;;3.17;;
20324;SDS011;10320;49.482;11.256;2022-11-14T12:31:35;4.00;;;3.60;;
20324;SDS011;10320;49.482;11.256;2022-11-14T12:34:03;4.47;;;3.60;;
20324;SDS011;10320;49.482;11.256;2022-11-14T12:36:32;3.90;;;3.60;;
20324;SDS011;10320;49.482;11.256;2022-11-14T12:38:59;3.77;;;3.43;;
20324;SDS011;10320;49.482;11.256;2022-11-14T12:41:30;3.53;;;3.23;;
20324;SDS011;10320;49.482;11.256;2022-11-14T12:49:36;4.03;;;3.40;;
20324;SDS011;10320;49.482;11.256;2022-11-14T12:52:03;3.60;;;3.30;;
20324;SDS011;10320;49.482;11.256;2022-11-14T12:57:07;3.63;;;3.20;;
20324;SDS011;10320;49.482;11.256;2022-11-14T12:59:59;3.80;;;3.50;;
20324;SDS011;10320;49.482;11.256;2022-11-14T13:05:11;3.90;;;3.30;;
20324;SDS011;10320;49.482;11.256;2022-11-14T13:10:15;4.03;;;3.63;;
20324;SDS011;10320;49.482;11.256;2022-11-14T13:18:30;3.53;;;3.23;;
20324;SDS011;10320;49.482;11.256;2022-11-14T13:21:20;3.47;;;3.17;;
20324;SDS011;10320;49.482;11.256;2022-11-14T13:24:20;3.80;;;3.23;;
20324;SDS011;10320;49.482;11.256;2022-11-14T13:26:50;3.70;;;3.40;;
20324;SDS011;10320;49.482;11.256;2022-11-14T13:32:00;3.60;;;3.30;;
20324;SDS011;10320;49.482;11.256;2022-11-14T13:47:32;3.00;;;2.80;;
20324;SDS011;10320;49.482;11.256;2022-11-14T13:50:02;3.57;;;3.27;;
20324;SDS011;10320;49.482;11.256;2022-11-14T13:52:34;3.60;;;3.30;;
20324;SDS011;10320;49.482;11.256;2022-11-14T13:55:04;4.10;;;3.70;;
20324;SDS011;10320;49.482;11.256;2022-11-14T14:00:00;5.50;;;4.40;;
20324;SDS011;10320;49.482;11.256;2022-11-14T14:05:06;3.27;;;2.90;;
20324;SDS011;10320;49.482;11.256;2022-11-14T14:07:46;3.50;;;3.20;;
20324;SDS011;10320;49.482;11.256;2022-11-14T14:10:28;2.73;;;2.53;;
20324;SDS011;10320;49.482;11.256;2022-11-14T14:15:32;2.73;;;2.30;;
20324;SDS011;10320;49.482;11.256;2022-11-14T14:20:30;2.50;;;2.30;;
20324;SDS011;10320;49.482;11.256;2022-11-14T14:28:10;11.13;;;3.90;;
20324;SDS011;10320;49.482;11.256;2022-11-14T14:30:40;6.30;;;3.27;;
20324;SDS011;10320;49.482;11.256;2022-11-14T14:35:33;4.10;;;3.60;;
20324;SDS011;10320;49.482;11.256;2022-11-14T14:37:59;4.37;;;3.97;;
20324;SDS011;10320;49.482;11.256;2022-11-14T14:42:51;3.60;;;3.30;;
20324;SDS011;10320;49.482;11.256;2022-11-14T14:45:19;3.97;;;3.23;;
20324;SDS011;10320;49.482;11.256;2022-11-14T14:50:24;3.67;;;3.23;;
20324;SDS011;10320;49.482;11.256;2022-11-14T14:52:58;4.10;;;3.70;;
20324;SDS011;10320;49.482;11.256;2022-11-14T14:55:28;3.50;;;3.20;;
20324;SDS011;10320;49.482;11.256;2022-11-14T14:58:11;4.43;;;3.40;;
20324;SDS011;10320;49.482;11.256;2022-11-14T15:00:37;3.03;;;2.83;;
20324;SDS011;10320;49.482;11.256;2022-11-14T15:03:03;3.97;;;3.30;;
20324;SDS011;10320;49.482;11.256;2022-11-14T15:05:29;3.57;;;3.20;;
20324;SDS011;10320;49.482;11.256;2022-11-14T15:07:56;3.70;;;3.10;;
20324;SDS011;10320;49.482;11.256;2022-11-14T15:10:24;3.40;;;3.10;;
20324;SDS011;10320;49.482;11.256;2022-11-14T15:12:53;3.70;;;3.40;;
20324;SDS011;10320;49.482;11.256;2022-11-14T15:15:19;4.47;;;3.53;;
20324;SDS011;10320;49.482;11.256;2022-11-14T15:17:49;3.77;;;3.43;;
20324;SDS011;10320;49.482;11.256;2022-11-14T15:20:21;4.37;;;3.63;;
20324;SDS011;10320;49.482;11.256;2022-11-14T15:25:47;4.67;;;3.90;;
20324;SDS011;10320;49.482;11.256;2022-11-14T15:28:15;10.27;;;6.70;;
20324;SDS011;10320;49.482;11.256;2022-11-14T15:30:41;7.43;;;4.27;;
20324;SDS011;10320;49.482;11.256;2022-11-14T15:33:27;5.67;;;4.37;;
20324;SDS011;10320;49.482;11.256;2022-11-14T15:36:06;9.43;;;4.63;;
20324;SDS011;10320;49.482;11.256;2022-11-14T15:38:33;5.03;;;4.00;;
20324;SDS011;10320;49.482;11.256;2022-11-14T15:41:10;8.53;;;5.40;;
20324;SDS011;10320;49.482;11.256;2022-11-14T15:43:50;4.57;;;3.70;;
20324;SDS011;10320;49.482;11.256;2022-11-14T15:48:59;4.23;;;3.03;;
20324;SDS011;10320;49.482;11.256;2022-11-14T15:54:22;4.17;;;3.77;;
20324;SDS011;10320;49.482;11.256;2022-11-14T15:56:48;3.80;;;3.50;;
20324;SDS011;10320;49.482;11.256;2022-11-14T15:59:14;5.20;;;4.13;;
20324;SDS011;10320;49.482;11.256;2022-11-14T16:01:40;5.10;;;3.90;;
20324;SDS011;10320;49.482;11.256;2022-11-14T16:04:09;3.27;;;2.97;;
20324;SDS011;10320;49.482;11.256;2022-11-14T16:06:37;5.23;;;3.80;;
20324;SDS011;10320;49.482;11.256;2022-11-14T16:09:03;3.50;;;3.20;;
20324;SDS011;10320;49.482;11.256;2022-11-14T16:11:35;4.43;;;4.03;;
20324;SDS011;10320;49.482;11.256;2022-11-14T16:14:09;3.63;;;3.13;;
20324;SDS011;10320;49.482;11.256;2022-11-14T16:16:35;3.80;;;3.40;;
20324;SDS011;10320;49.482;11.256;2022-11-14T16:19:01;4.13;;;3.70;;
20324;SDS011;10320;49.482;11.256;2022-11-14T16:21:27;4.07;;;3.67;;
20324;SDS011;10320;49.482;11.256;2022-11-14T16:23:53;4.57;;;3.57;;
20324;SDS011;10320;49.482;11.256;2022-11-14T16:26:19;4.70;;;3.83;;
20324;SDS011;10320;49.482;11.256;2022-11-14T16:28:45;32.93;;;19.27;;
20324;SDS011;10320;49.482;11.256;2022-11-14T16:31:12;60.13;;;30.20;;